Time;durP1;ratioP1;P1;durP2;ratioP2;P2;SDS_P1;SDS_P2;PMS_P1;PMS_P2;Temp;Humidity;BMP_temperature;BMP_pressure;BME280_temperature;BME280_humidity;BME280_pressure;Samples;Min_cycle;Max_cycle;Signal;HPM_P1;HPM_P2
2022/10/31 00:00:24;;;;;;;0.40;0.30;;;;;;;16.12;100.00;99548.91;7398412;19;20023;-89
2022/10/31 00:02:50;;;;;;;16.08;0.47;;;;;;;16.08;100.00;99545.63;7401091;19;20014;-89
2022/10/31 00:05:16;;;;;;;1.38;0.82;;;;;;;16.00;100.00;99550.28;7400722;19;20015;-89
2022/10/31 00:07:42;;;;;;;2.65;0.73;;;;;;;15.98;100.00;99552.06;7403027;19;20025;-88
2022/10/31 00:10:09;;;;;;;0.08;0.00;;;;;;;15.97;100.00;99556.91;7398216;19;20039;-89
2022/10/31 00:12:35;;;;;;;6.70;0.55;;;;;;;15.87;100.00;99559.25;7401428;19;20026;-89
2022/10/31 00:15:01;;;;;;;0.75;0.60;;;;;;;16.12;100.00;99557.34;7401917;19;20048;-89
2022/10/31 00:17:27;;;;;;;0.52;0.50;;;;;;;16.09;100.00;99560.44;7404267;19;20019;-89
2022/10/31 00:19:53;;;;;;;1.10;0.57;;;;;;;15.97;100.00;99565.34;7399249;19;20018;-89
2022/10/31 00:22:19;;;;;;;0.15;0.10;;;;;;;15.87;100.00;99564.13;7399521;19;20011;-89
2022/10/31 00:24:45;;;;;;;2.65;0.43;;;;;;;15.90;100.00;99563.06;7399213;19;20014;-88
2022/10/31 00:27:11;;;;;;;4.38;0.43;;;;;;;16.04;100.00;99562.00;7401641;19;20014;-88
2022/10/31 00:29:37;;;;;;;0.15;0.15;;;;;;;16.07;100.00;99563.00;7399388;19;20333;-87
2022/10/31 00:32:04;;;;;;;0.40;0.40;;;;;;;16.07;100.00;99566.56;7400912;19;20018;-88
2022/10/31 00:34:30;;;;;;;12.13;0.50;;;;;;;15.96;100.00;99566.63;7397002;19;20018;-89
2022/10/31 00:36:59;;;;;;;0.10;0.00;;;;;;;15.97;100.00;99568.16;7401373;19;20035;-88
2022/10/31 00:39:25;;;;;;;1.27;0.85;;;;;;;16.00;100.00;99566.34;7398431;19;20477;-88
2022/10/31 00:41:52;;;;;;;0.10;0.03;;;;;;;16.08;100.00;99559.66;7399193;19;20015;-89
2022/10/31 00:44:18;;;;;;;0.10;0.10;;;;;;;16.12;100.00;99557.34;7400814;19;20011;-88
2022/10/31 00:46:44;;;;;;;1.58;1.05;;;;;;;16.14;100.00;99562.41;7399896;19;20014;-89
2022/10/31 00:49:11;;;;;;;0.10;0.00;;;;;;;16.18;100.00;99562.91;7399292;19;20037;-88
2022/10/31 00:51:37;;;;;;;1.42;0.15;;;;;;;16.13;100.00;99561.69;7399518;19;20018;-89
2022/10/31 00:54:03;;;;;;;0.17;0.17;;;;;;;16.14;100.00;99570.84;7397855;19;20496;-88
2022/10/31 00:56:30;;;;;;;0.32;0.32;;;;;;;16.17;100.00;99564.97;7399811;19;20488;-88
2022/10/31 00:58:58;;;;;;;0.63;0.10;;;;;;;16.18;100.00;99560.88;7397738;19;20010;-89
2022/10/31 01:01:24;;;;;;;7.78;0.40;;;;;;;16.17;100.00;99559.34;7403366;19;20014;-89
2022/10/31 01:03:50;;;;;;;0.43;0.43;;;;;;;16.14;100.00;99562.41;7397881;19;20026;-89
2022/10/31 01:06:17;;;;;;;0.52;0.30;;;;;;;16.19;100.00;99556.78;7398462;19;20091;-89
2022/10/31 01:08:43;;;;;;;0.20;0.20;;;;;;;16.28;100.00;99553.66;7398831;19;20026;-88
2022/10/31 01:11:19;;;;;;;0.88;0.32;;;;;;;16.33;100.00;99563.34;7399514;19;20023;-89
2022/10/31 01:13:46;;;;;;;8.02;0.55;;;;;;;16.37;100.00;99558.19;7401069;19;20038;-88
2022/10/31 01:16:15;;;;;;;0.57;0.57;;;;;;;16.30;100.00;99556.72;7401533;19;20011;-89
2022/10/31 01:18:41;;;;;;;0.35;0.35;;;;;;;16.35;100.00;99564.31;7400437;19;20014;-88
2022/10/31 01:21:14;;;;;;;0.10;0.00;;;;;;;16.47;100.00;99560.16;7397964;19;20468;-88
2022/10/31 01:23:41;;;;;;;0.20;0.00;;;;;;;16.56;100.00;99557.03;7400267;19;20022;-89
2022/10/31 01:26:12;;;;;;;0.68;0.08;;;;;;;16.58;100.00;99565.72;7399478;19;20457;-89
2022/10/31 01:28:48;;;;;;;5.85;0.57;;;;;;;16.58;100.00;99560.09;7397555;19;20493;-89
2022/10/31 01:31:16;;;;;;;0.20;0.10;;;;;;;16.58;100.00;99560.09;7398266;19;20019;-88
2022/10/31 01:33:43;;;;;;;0.40;0.40;;;;;;;16.64;100.00;99558.00;7393800;19;20034;-89
2022/10/31 01:36:24;;;;;;;5.20;0.90;;;;;;;16.65;100.00;99567.19;7390971;19;20014;-89
2022/10/31 01:38:53;;;;;;;0.70;0.63;;;;;;;16.47;100.00;99574.19;7394384;19;20021;-89
2022/10/31 01:41:22;;;;;;;6.13;0.50;;;;;;;16.50;100.00;99573.16;7397744;19;20010;-89
2022/10/31 01:43:53;;;;;;;5.20;1.08;;;;;;;16.56;100.00;99579.53;7397542;19;20033;-89
2022/10/31 01:46:24;;;;;;;1.80;0.77;;;;;;;16.94;100.00;99580.47;7398940;19;20046;-88
2022/10/31 01:48:53;;;;;;;0.82;0.50;;;;;;;17.07;100.00;99582.63;7392781;19;20014;-84
2022/10/31 01:51:24;;;;;;;0.57;0.57;;;;;;;17.13;100.00;99589.00;7397618;19;20028;-93
2022/10/31 01:53:55;;;;;;;0.65;0.40;;;;;;;17.13;100.00;99580.53;7393362;19;20014;-94
2022/10/31 01:56:24;;;;;;;0.15;0.15;;;;;;;16.62;100.00;99577.44;7393472;19;20798;-92
2022/10/31 01:58:54;;;;;;;11.50;0.73;;;;;;;17.34;100.00;99573.16;7394703;19;20006;-87
2022/10/31 02:01:21;;;;;;;9.85;0.55;;;;;;;16.77;100.00;99595.97;7396348;19;20483;-94
2022/10/31 02:03:49;;;;;;;0.10;0.00;;;;;;;17.17;100.00;99595.81;7395671;19;20355;-90
2022/10/31 02:06:41;;;;;;;7.38;1.63;;;;;;;17.46;100.00;99591.41;7394412;19;20468;-88
2022/10/31 02:09:12;;;;;;;0.40;0.17;;;;;;;17.36;100.00;99588.22;7392650;19;20025;-91
2022/10/31 02:11:40;;;;;;;5.50;1.00;;;;;;;17.45;100.00;99579.38;7396028;19;20018;-89
2022/10/31 02:14:07;;;;;;;0.10;0.10;;;;;;;17.41;100.00;99581.00;7392915;19;20010;-92
2022/10/31 02:16:33;;;;;;;1.42;0.45;;;;;;;17.29;100.00;99577.53;7396752;19;20010;-91
2022/10/31 02:18:59;;;;;;;0.70;0.30;;;;;;;17.17;100.00;99572.56;7396434;19;20018;-93
2022/10/31 02:21:49;;;;;;;2.97;0.55;;;;;;;16.92;100.00;99571.00;7396334;19;20078;-90
2022/10/31 02:24:57;;;;;;;0.20;0.20;;;;;;;17.02;100.00;99580.66;7394200;19;20334;-87
2022/10/31 02:28:00;;;;;;;0.10;0.00;;;;;;;16.92;100.00;99585.09;7395796;19;20010;-87
2022/10/31 02:30:44;;;;;;;0.57;0.35;;;;;;;16.86;100.00;99584.38;7399830;19;20010;-87
2022/10/31 02:33:37;;;;;;;0.82;0.52;;;;;;;16.91;100.00;99586.38;7394363;19;20011;-88
2022/10/31 02:36:42;;;;;;;0.20;0.20;;;;;;;16.64;100.00;99574.84;7394810;19;20014;-88
2022/10/31 02:39:15;;;;;;;0.10;0.10;;;;;;;16.60;100.00;99568.00;7392525;19;20007;-88
2022/10/31 02:41:51;;;;;;;10.82;0.77;;;;;;;16.36;100.00;99582.72;7394850;19;20070;-88
2022/10/31 02:44:35;;;;;;;1.83;0.95;;;;;;;16.29;100.00;99582.50;7395679;19;20018;-87
2022/10/31 02:47:34;;;;;;;2.63;0.73;;;;;;;16.29;100.00;99583.28;7396888;19;20465;-88
2022/10/31 02:50:13;;;;;;;0.47;0.38;;;;;;;16.21;100.00;99575.91;7391760;19;20015;-87
2022/10/31 02:52:40;;;;;;;12.02;0.45;;;;;;;16.14;100.00;99588.47;7395311;19;20018;-88
2022/10/31 02:55:25;;;;;;;0.10;0.10;;;;;;;16.20;100.00;99588.47;7396008;19;20011;-88
2022/10/31 02:58:15;;;;;;;0.63;0.63;;;;;;;16.04;100.00;99594.94;7399210;19;20006;-88
2022/10/31 03:00:54;;;;;;;0.95;0.88;;;;;;;16.21;100.00;99576.69;7400047;19;20014;-88
2022/10/31 03:03:39;;;;;;;0.47;0.47;;;;;;;16.21;100.00;99587.16;7395368;19;20026;-88
2022/10/31 03:06:30;;;;;;;0.52;0.43;;;;;;;16.30;100.00;99575.59;7394894;19;20022;-88
2022/10/31 03:09:05;;;;;;;0.57;0.35;;;;;;;16.68;100.00;99586.56;7393339;19;20010;-88
2022/10/31 03:12:03;;;;;;;0.32;0.20;;;;;;;16.94;100.00;99576.88;7394296;19;20018;-86
2022/10/31 03:14:53;;;;;;;0.10;0.10;;;;;;;16.72;100.00;99577.09;7393146;19;20077;-87
2022/10/31 03:17:29;;;;;;;1.65;1.00;;;;;;;16.95;100.00;99575.59;7397410;19;20053;-88
2022/10/31 03:20:00;;;;;;;3.22;0.43;;;;;;;16.98;100.00;99577.38;7392954;19;20038;-88
2022/10/31 03:22:31;;;;;;;3.92;0.30;;;;;;;17.03;100.00;99593.41;7394716;19;20656;-88
2022/10/31 03:25:02;;;;;;;12.20;0.77;;;;;;;17.40;100.00;99590.72;7394754;19;20025;-88
2022/10/31 03:27:33;;;;;;;2.38;0.70;;;;;;;17.72;100.00;99586.03;7397444;19;20010;-88
2022/10/31 03:30:04;;;;;;;0.75;0.35;;;;;;;17.62;100.00;99584.88;7392808;19;20014;-88
2022/10/31 03:32:40;;;;;;;0.17;0.15;;;;;;;17.65;100.00;99585.88;7393990;19;20106;-88
2022/10/31 03:35:09;;;;;;;7.18;0.40;;;;;;;17.78;100.00;99575.44;7398225;19;20011;-88
2022/10/31 03:37:39;;;;;;;13.60;1.20;;;;;;;17.59;100.00;99571.06;7405061;19;20011;-88
2022/10/31 03:40:14;;;;;;;6.18;0.65;;;;;;;17.65;100.00;99558.44;7398980;19;20014;-88
2022/10/31 03:42:46;;;;;;;1.20;0.50;;;;;;;17.75;100.00;99553.97;7401026;19;20011;-88
2022/10/31 03:45:18;;;;;;;4.57;0.38;;;;;;;17.72;100.00;99566.31;7400803;19;20390;-88
2022/10/31 03:47:44;;;;;;;5.28;0.70;;;;;;;17.65;100.00;99561.25;7404207;19;20031;-88
2022/10/31 03:50:14;;;;;;;0.30;0.20;;;;;;;17.74;100.00;99560.91;7399056;19;20409;-88
2022/10/31 03:53:04;;;;;;;1.85;0.65;;;;;;;17.72;100.00;99557.84;7401495;19;20031;-88
2022/10/31 03:55:40;;;;;;;1.13;0.52;;;;;;;17.65;100.00;99558.44;7401910;19;20003;-88
2022/10/31 03:58:11;;;;;;;2.92;0.47;;;;;;;17.66;100.00;99557.16;7405361;19;20010;-88
2022/10/31 04:00:43;;;;;;;0.30;0.30;;;;;;;17.46;100.00;99563.28;7402320;19;20011;-88
2022/10/31 04:03:16;;;;;;;5.05;0.30;;;;;;;17.41;100.00;99561.31;7400145;19;20006;-87
2022/10/31 04:05:48;;;;;;;1.30;0.73;;;;;;;17.28;100.00;99561.19;7400785;19;20074;-88
2022/10/31 04:08:18;;;;;;;0.10;0.10;;;;;;;17.10;100.00;99556.25;7403959;19;20070;-88
2022/10/31 04:10:49;;;;;;;0.13;0.13;;;;;;;16.91;100.00;99569.50;7400913;19;20334;-88
2022/10/31 04:13:22;;;;;;;1.17;0.40;;;;;;;17.00;100.00;99560.72;7400007;19;20014;-87
2022/10/31 04:15:57;;;;;;;0.38;0.25;;;;;;;17.05;100.00;99551.44;7400487;19;20003;-88
2022/10/31 04:18:26;;;;;;;0.85;0.30;;;;;;;17.14;100.00;99562.34;7405323;19;20014;-88
2022/10/31 04:21:04;;;;;;;1.45;0.68;;;;;;;17.16;100.00;99551.34;7400242;19;20021;-88
2022/10/31 04:23:32;;;;;;;0.32;0.32;;;;;;;17.17;100.00;99547.25;7399991;19;20018;-88
2022/10/31 04:26:00;;;;;;;3.83;0.35;;;;;;;17.11;100.00;99532.44;7400207;19;20500;-88
2022/10/31 04:28:27;;;;;;;1.38;0.30;;;;;;;16.83;100.00;99529.94;7403890;19;20070;-87
2022/10/31 04:30:53;;;;;;;2.80;0.32;;;;;;;16.68;100.00;99541.59;7400686;19;20014;-88
2022/10/31 04:33:19;;;;;;;0.90;0.75;;;;;;;16.89;100.00;99538.34;7398878;19;20086;-88
2022/10/31 04:35:47;;;;;;;6.07;1.45;;;;;;;16.75;100.00;99533.84;7400825;19;20361;-88
2022/10/31 04:38:13;;;;;;;3.42;0.40;;;;;;;16.93;100.00;99531.13;7403169;19;20508;-88
2022/10/31 04:40:40;;;;;;;0.10;0.10;;;;;;;17.05;100.00;99528.94;7400084;19;20706;-88
2022/10/31 04:43:21;;;;;;;0.10;0.10;;;;;;;16.78;100.00;99521.56;7398279;19;20018;-88
2022/10/31 04:45:47;;;;;;;4.68;0.75;;;;;;;16.55;100.00;99524.56;7398528;19;20011;-88
2022/10/31 04:48:14;;;;;;;2.33;0.50;;;;;;;16.51;100.00;99531.78;7403198;19;20085;-88
2022/10/31 04:50:42;;;;;;;6.65;0.38;;;;;;;16.67;100.00;99526.00;7399839;19;20010;-87
2022/10/31 04:53:09;;;;;;;3.83;0.50;;;;;;;16.50;100.00;99522.56;7400229;19;20038;-87
2022/10/31 04:55:45;;;;;;;0.30;0.30;;;;;;;16.48;100.00;99516.69;7399509;19;20018;-87
2022/10/31 04:58:22;;;;;;;1.75;0.50;;;;;;;16.68;100.00;99524.72;7402243;19;20330;-88
2022/10/31 05:00:52;;;;;;;0.25;0.25;;;;;;;16.74;100.00;99515.47;7391468;19;20026;-88
2022/10/31 05:03:19;;;;;;;0.05;0.05;;;;;;;16.75;100.00;99505.72;7394337;19;20347;-88
2022/10/31 05:05:46;;;;;;;1.83;0.52;;;;;;;16.76;100.00;99502.41;7398554;19;20019;-88
2022/10/31 05:08:14;;;;;;;0.55;0.40;;;;;;;16.93;100.00;99510.66;7402216;19;20014;-88
2022/10/31 05:10:40;;;;;;;0.10;0.00;;;;;;;17.11;100.00;99504.31;7398460;19;20019;-88
2022/10/31 05:13:06;;;;;;;1.30;0.82;;;;;;;16.98;100.00;99502.16;7398237;19;20453;-88
2022/10/31 05:16:08;;;;;;;17.30;1.25;;;;;;;17.03;100.00;99509.00;7398278;19;20011;-87
2022/10/31 05:18:53;;;;;;;1.85;0.52;;;;;;;16.96;100.00;99510.38;7404149;19;20006;-87
2022/10/31 05:21:37;;;;;;;0.90;0.40;;;;;;;16.99;100.00;99502.94;7398127;19;20764;-88
2022/10/31 05:24:04;;;;;;;0.20;0.10;;;;;;;17.03;100.00;99506.19;7398478;19;20017;-88
2022/10/31 05:26:30;;;;;;;1.15;0.77;;;;;;;16.96;100.00;99509.59;7398704;19;20021;-88
2022/10/31 05:28:57;;;;;;;0.10;0.10;;;;;;;17.08;100.00;99511.00;7397900;19;20014;-88
2022/10/31 05:31:23;;;;;;;0.13;0.13;;;;;;;17.10;100.00;99511.25;7399562;19;20127;-87
2022/10/31 05:33:50;;;;;;;0.05;0.00;;;;;;;17.12;100.00;99503.03;7396247;19;20010;-88
2022/10/31 05:36:51;;;;;;;0.00;0.00;;;;;;;17.13;100.00;99510.94;7396588;19;20019;-88
2022/10/31 05:39:21;;;;;;;0.10;0.10;;;;;;;17.16;100.00;99512.69;7395297;19;20021;-89
2022/10/31 05:41:51;;;;;;;1.20;0.75;;;;;;;17.13;100.00;99507.38;7397457;19;20010;-88
2022/10/31 05:44:23;;;;;;;7.30;0.52;;;;;;;17.11;100.00;99507.91;7398289;19;20044;-88
2022/10/31 05:47:11;;;;;;;4.13;0.47;;;;;;;17.08;100.00;99503.34;7399787;19;20014;-88
2022/10/31 05:49:56;;;;;;;0.80;0.63;;;;;;;16.87;100.00;99496.66;7396440;19;20018;-88
2022/10/31 05:53:00;;;;;;;0.38;0.20;;;;;;;16.59;100.00;99493.34;7396913;19;20457;-88
2022/10/31 05:55:33;;;;;;;0.68;0.65;;;;;;;15.83;100.00;99491.38;7396697;19;20014;-88
2022/10/31 05:58:07;;;;;;;4.00;0.63;;;;;;;16.19;100.00;99494.97;7398506;19;20024;-88
2022/10/31 06:00:35;;;;;;;0.30;0.10;;;;;;;16.12;100.00;99489.13;7397301;19;20069;-88
2022/10/31 06:03:07;;;;;;;;;;;;;;;16.23;100.00;99489.06;7397183;19;20022;-87
2022/10/31 06:05:46;;;;;;;10.02;0.30;;;;;;;16.32;100.00;99491.53;7396671;19;19941;-88
2022/10/31 06:08:13;;;;;;;0.20;0.20;;;;;;;16.18;100.00;99482.19;7401367;19;20014;-88
2022/10/31 06:10:40;;;;;;;0.85;0.45;;;;;;;16.20;100.00;99479.63;7396761;19;20082;-88
2022/10/31 06:13:07;;;;;;;0.80;0.65;;;;;;;16.14;100.00;99475.31;7395959;19;20050;-88
2022/10/31 06:15:44;;;;;;;0.30;0.30;;;;;;;16.15;100.00;99472.00;7396134;19;20528;-88
2022/10/31 06:18:11;;;;;;;0.10;0.10;;;;;;;16.18;100.00;99465.34;7400297;19;20017;-87
2022/10/31 06:20:47;;;;;;;0.00;0.00;;;;;;;16.28;100.00;99463.72;7396688;19;20014;-87
2022/10/31 06:23:13;;;;;;;0.22;0.10;;;;;;;16.25;100.00;99469.63;7396307;19;20086;-87
2022/10/31 06:25:42;;;;;;;1.35;0.43;;;;;;;16.27;100.00;99462.19;7396411;19;20021;-87
2022/10/31 06:28:08;;;;;;;0.10;0.00;;;;;;;16.36;100.00;99469.53;7399700;19;20074;-88
2022/10/31 06:30:46;;;;;;;0.63;0.30;;;;;;;16.36;100.00;99464.69;7400153;19;20014;-88
2022/10/31 06:33:12;;;;;;;0.38;0.38;;;;;;;16.31;100.00;99457.03;7395718;19;20513;-88
2022/10/31 06:35:46;;;;;;;6.15;0.43;;;;;;;16.29;100.00;99448.38;7396557;19;20010;-87
2022/10/31 06:38:13;;;;;;;0.20;0.20;;;;;;;16.44;100.00;99460.00;7399126;19;20011;-87
2022/10/31 06:40:41;;;;;;;2.15;0.93;;;;;;;16.42;100.00;99456.94;7395528;19;20082;-88
2022/10/31 06:43:23;;;;;;;3.20;0.95;;;;;;;16.24;100.00;99456.88;7395893;19;20014;-88
2022/10/31 06:45:57;;;;;;;0.10;0.10;;;;;;;15.96;100.00;99448.66;7395512;19;20010;-88
2022/10/31 06:48:27;;;;;;;7.47;0.63;;;;;;;15.81;100.00;99446.22;7399623;19;20082;-88
2022/10/31 06:51:25;;;;;;;0.10;0.10;;;;;;;15.78;100.00;99450.09;7394321;19;20018;-88
2022/10/31 06:53:52;;;;;;;8.63;1.05;;;;;;;15.99;100.00;99455.28;7395342;19;20015;-88
2022/10/31 06:56:18;;;;;;;0.30;0.22;;;;;;;15.93;100.00;99452.53;7396495;19;20464;-87
2022/10/31 06:58:48;;;;;;;2.97;0.68;;;;;;;16.14;100.00;99448.00;7395657;19;20011;-89
2022/10/31 07:01:17;;;;;;;0.10;0.10;;;;;;;15.87;100.00;99446.19;7395055;19;20098;-88
2022/10/31 07:03:43;;;;;;;0.28;0.28;;;;;;;16.04;100.00;99452.44;7394959;19;20011;-90
2022/10/31 07:06:09;;;;;;;0.60;0.20;;;;;;;16.09;100.00;99456.50;7395787;19;20011;-90
2022/10/31 07:08:35;;;;;;;7.13;1.95;;;;;;;16.25;100.00;99442.28;7398924;19;20022;-89
2022/10/31 07:11:02;;;;;;;0.70;0.50;;;;;;;16.27;100.00;99445.34;7396216;19;20015;-89
2022/10/31 07:13:29;;;;;;;3.60;0.20;;;;;;;16.42;100.00;99440.09;7394287;19;20086;-89
2022/10/31 07:16:06;;;;;;;9.98;1.08;;;;;;;16.45;100.00;99438.28;7395529;19;20006;-90
2022/10/31 07:18:35;;;;;;;1.45;0.55;;;;;;;16.39;100.00;99432.72;7398874;19;20041;-89
2022/10/31 07:21:02;;;;;;;1.02;0.57;;;;;;;16.44;100.00;99437.50;7394823;19;20017;-90
2022/10/31 07:23:28;;;;;;;0.38;0.38;;;;;;;16.53;100.00;99425.94;7395694;19;20402;-90
2022/10/31 07:26:17;;;;;;;2.22;0.50;;;;;;;16.75;100.00;99444.63;7396317;19;20500;-89
2022/10/31 07:28:47;;;;;;;2.15;0.43;;;;;;;16.93;100.00;99440.34;7394445;19;20047;-89
2022/10/31 07:31:14;;;;;;;0.30;0.20;;;;;;;16.89;100.00;99453.94;7395227;19;20018;-89
2022/10/31 07:33:41;;;;;;;0.30;0.30;;;;;;;16.78;100.00;99454.84;7394363;19;20043;-90
2022/10/31 07:36:43;;;;;;;0.43;0.17;;;;;;;16.68;100.00;99462.09;7395113;19;20081;-89
2022/10/31 07:39:12;;;;;;;1.38;0.40;;;;;;;16.94;100.00;99461.53;7393888;19;20649;-90
2022/10/31 07:41:38;;;;;;;1.95;0.63;;;;;;;16.98;100.00;99470.47;7394127;19;20011;-87
2022/10/31 07:44:04;;;;;;;4.38;0.30;;;;;;;16.94;100.00;99472.78;7395168;19;20021;-90
2022/10/31 07:46:49;;;;;;;2.65;0.63;;;;;;;17.11;100.00;99470.53;7396963;19;20019;-90
2022/10/31 07:49:33;;;;;;;1.70;0.77;;;;;;;17.21;100.00;99474.53;7393709;19;20011;-90
2022/10/31 07:52:18;;;;;;;10.10;1.27;;;;;;;17.32;100.00;99474.41;7395116;19;20018;-89
2022/10/31 07:55:06;;;;;;;0.17;0.17;;;;;;;17.54;100.00;99473.38;7393499;19;20535;-90
2022/10/31 07:57:36;;;;;;;1.23;0.33;;;;;;;17.26;100.00;99474.44;7396679;19;20360;-90
2022/10/31 08:00:07;;;;;;;0.30;0.20;;;;;;;17.77;100.00;99474.56;7391860;19;20007;-90
2022/10/31 08:02:41;;;;;;;0.08;0.08;;;;;;;17.95;100.00;99468.16;7393722;19;20042;-90
2022/10/31 08:05:34;;;;;;;0.20;0.15;;;;;;;17.80;100.00;99479.88;7395305;19;20014;-89
2022/10/31 08:08:37;;;;;;;4.72;0.50;;;;;;;17.99;100.00;99482.69;7391170;19;20029;-90
2022/10/31 08:11:03;;;;;;;0.32;0.32;;;;;;;18.03;100.00;99481.09;7391661;19;20034;-90
2022/10/31 08:13:30;;;;;;;21.92;0.95;;;;;;;18.23;100.00;99487.44;7390380;19;20018;-90
2022/10/31 08:16:03;;;;;;;5.15;0.22;;;;;;;18.23;100.00;99484.63;7393649;19;20078;-90
2022/10/31 08:18:30;;;;;;;3.70;0.40;;;;;;;18.30;100.00;99489.63;7397151;19;20007;-91
2022/10/31 08:20:57;;;;;;;0.60;0.32;;;;;;;18.18;100.00;99481.38;7395454;19;20030;-90
2022/10/31 08:23:23;;;;;;;0.45;0.30;;;;;;;18.09;100.00;99478.94;7401589;19;20026;-90
2022/10/31 08:25:49;;;;;;;2.50;0.52;;;;;;;18.26;100.00;99481.47;7401325;19;20062;-89
2022/10/31 08:28:15;;;;;;;4.88;0.73;;;;;;;18.30;100.00;99478.38;7404744;19;20019;-91
2022/10/31 08:30:43;;;;;;;5.93;0.40;;;;;;;18.30;100.00;99489.63;7400916;19;20006;-91
2022/10/31 08:33:39;;;;;;;0.15;0.15;;;;;;;18.54;100.00;99483.84;7397813;19;20011;-91
2022/10/31 08:36:28;;;;;;;1.77;0.70;;;;;;;18.47;100.00;99481.69;7399616;19;20010;-91
2022/10/31 08:39:14;;;;;;;0.10;0.10;;;;;;;18.61;100.00;99475.53;7397422;19;20007;-90
2022/10/31 08:41:40;;;;;;;0.10;0.10;;;;;;;18.63;100.00;99469.34;7399298;19;20033;-91
2022/10/31 08:44:10;;;;;;;0.35;0.32;;;;;;;18.69;100.00;99467.19;7399949;19;20014;-90
2022/10/31 08:46:37;;;;;;;0.15;0.10;;;;;;;18.79;100.00;99471.88;7400556;19;20086;-91
2022/10/31 08:49:03;;;;;;;0.22;0.10;;;;;;;18.74;100.00;99463.50;7398077;19;20015;-90
2022/10/31 08:51:29;;;;;;;0.73;0.73;;;;;;;18.78;100.00;99453.41;7399664;19;20020;-90
2022/10/31 08:53:56;;;;;;;4.13;0.90;;;;;;;19.06;100.00;99455.69;7399058;19;20010;-90
2022/10/31 08:56:31;;;;;;;0.55;0.43;;;;;;;18.97;100.00;99467.44;7401353;19;20021;-90
2022/10/31 08:58:59;;;;;;;1.27;0.75;;;;;;;18.99;100.00;99464.81;7400068;19;20027;-90
2022/10/31 09:01:48;;;;;;;0.40;0.13;;;;;;;18.94;100.00;99465.69;7399669;19;20023;-90
2022/10/31 09:04:14;;;;;;;2.08;0.13;;;;;;;19.14;100.00;99467.84;7401456;19;20636;-90
2022/10/31 09:06:41;;;;;;;1.17;0.50;;;;;;;19.11;100.00;99462.50;7400668;19;20007;-90
2022/10/31 09:09:07;;;;;;;0.20;0.20;;;;;;;19.18;100.00;99450.56;7397797;19;20131;-91
2022/10/31 09:11:33;;;;;;;5.68;0.93;;;;;;;19.16;100.00;99447.53;7398820;19;20014;-91
2022/10/31 09:14:22;;;;;;;2.15;0.73;;;;;;;19.28;100.00;99443.16;7396280;19;20369;-90
2022/10/31 09:17:11;;;;;;;6.75;0.73;;;;;;;19.34;100.00;99452.28;7400306;19;20355;-91
2022/10/31 09:19:52;;;;;;;3.53;0.55;;;;;;;19.33;100.00;99450.75;7397335;19;20014;-91
2022/10/31 09:22:18;;;;;;;1.25;0.50;;;;;;;19.43;100.00;99441.31;7399994;19;20013;-89
2022/10/31 09:24:44;;;;;;;6.82;0.85;;;;;;;19.11;100.00;99446.34;7400972;19;20034;-90
2022/10/31 09:27:10;;;;;;;0.75;0.28;;;;;;;19.28;100.00;99449.56;7402301;19;20021;-91
2022/10/31 09:29:40;;;;;;;1.10;0.40;;;;;;;19.12;100.00;99452.75;7399406;19;20034;-91
2022/10/31 09:32:08;;;;;;;5.15;0.95;;;;;;;19.17;100.00;99449.81;7401707;19;20013;-91
2022/10/31 09:34:39;;;;;;;0.10;0.03;;;;;;;19.09;100.00;99442.53;7399916;19;20014;-91
2022/10/31 09:37:09;;;;;;;1.58;0.20;;;;;;;19.15;100.00;99435.47;7405187;19;20010;-91
2022/10/31 09:39:35;;;;;;;0.60;0.60;;;;;;;19.09;100.00;99434.84;7406164;19;20014;-90
2022/10/31 09:42:34;;;;;;;0.05;0.05;;;;;;;19.17;100.00;99435.69;7420303;19;20006;-90
2022/10/31 09:45:02;;;;;;;0.43;0.43;;;;;;;19.13;100.00;99435.25;7426564;19;20017;-92
2022/10/31 09:48:08;;;;;;;3.40;0.17;;;;;;;19.22;100.00;99428.41;7425680;19;20009;-90
2022/10/31 09:50:47;;;;;;;1.30;0.73;;;;;;;19.39;100.00;99426.00;7426903;19;20050;-91
2022/10/31 09:53:50;;;;;;;0.50;0.50;;;;;;;19.40;100.00;99427.53;7406282;19;20026;-91
2022/10/31 09:56:22;;;;;;;17.30;0.43;;;;;;;19.11;100.00;99420.16;7398757;19;20019;-90
2022/10/31 09:58:58;;;;;;;1.40;0.52;;;;;;;19.08;100.00;99418.44;7398006;19;20015;-90
2022/10/31 10:01:42;;;;;;;5.13;0.55;;;;;;;19.01;100.00;99424.75;7397026;19;20472;-88
2022/10/31 10:04:28;;;;;;;8.50;0.63;;;;;;;19.06;100.00;99427.44;7398297;19;20015;-87
2022/10/31 10:07:08;;;;;;;0.17;0.08;;;;;;;19.20;100.00;99426.13;7396825;19;20015;-86
2022/10/31 10:09:43;;;;;;;5.20;1.50;;;;;;;19.52;100.00;99434.44;7396154;19;20027;-91
2022/10/31 10:13:01;;;;;;;1.55;0.43;;;;;;;19.69;100.00;99426.34;7398154;19;20768;-90
2022/10/31 10:15:43;;;;;;;4.07;0.73;;;;;;;19.71;100.00;99428.66;7397579;19;20026;-90
2022/10/31 10:18:14;;;;;;;0.40;0.00;;;;;;;19.63;100.00;99426.50;7401079;19;20050;-90
2022/10/31 10:21:15;;;;;;;0.65;0.10;;;;;;;20.02;100.00;99419.16;7398375;19;20006;-89
2022/10/31 10:24:08;;;;;;;0.32;0.20;;;;;;;19.96;100.00;99429.84;7396738;19;20011;-89
2022/10/31 10:26:37;;;;;;;3.13;0.30;;;;;;;20.02;100.00;99419.16;7398909;19;20309;-91
2022/10/31 10:29:29;;;;;;;0.57;0.47;;;;;;;20.05;100.00;99413.16;7397968;19;20018;-91
2022/10/31 10:32:01;;;;;;;0.10;0.10;;;;;;;19.94;100.00;99416.25;7394810;19;20037;-91
2022/10/31 10:34:34;;;;;;;4.03;0.57;;;;;;;19.77;100.00;99409.50;7395881;19;20030;-91
2022/10/31 10:37:08;;;;;;;2.63;0.15;;;;;;;20.01;100.00;99417.66;7397572;19;20030;-91
2022/10/31 10:39:38;;;;;;;3.95;0.40;;;;;;;20.07;100.00;99410.53;7394715;19;20448;-91
2022/10/31 10:47:57;;;;;;;0.28;0.13;;;;;;;20.14;100.00;99406.25;7393956;19;20094;-93
2022/10/31 10:50:35;;;;;;;6.65;0.38;;;;;;;20.21;100.00;99400.69;7391213;19;20508;-92
2022/10/31 10:54:00;;;;;;;0.88;0.30;;;;;;;20.24;100.00;99404.47;7389800;19;20014;-92
2022/10/31 10:56:57;;;;;;;0.85;0.10;;;;;;;20.39;100.00;99398.94;7384471;19;20033;-92
2022/10/31 10:59:24;;;;;;;0.57;0.10;;;;;;;20.38;100.00;99406.66;7392031;19;20021;-91
2022/10/31 11:01:51;;;;;;;1.10;0.40;;;;;;;20.46;100.00;99403.16;7395693;19;20010;-90
2022/10/31 11:04:32;;;;;;;0.10;0.00;;;;;;;20.45;100.00;99398.78;7395523;19;20023;-90
2022/10/31 11:07:10;;;;;;;7.78;1.00;;;;;;;20.66;100.00;99391.75;7398425;19;20022;-90
2022/10/31 11:09:37;;;;;;;5.28;0.40;;;;;;;20.69;100.00;99401.97;7396281;19;20431;-91
2022/10/31 11:12:17;;;;;;;0.82;0.25;;;;;;;20.66;100.00;99396.69;7396206;19;20015;-92
2022/10/31 11:15:08;;;;;;;0.93;0.50;;;;;;;20.94;100.00;99377.56;7395207;19;20022;-92
2022/10/31 11:17:36;;;;;;;;;;;;;;;21.01;100.00;99388.19;7399120;19;20018;-92
2022/10/31 11:20:24;;;;;;;1.13;0.73;;;;;;;20.75;100.00;99371.44;7393850;19;19915;-91
2022/10/31 11:23:01;;;;;;;0.30;0.10;;;;;;;20.75;100.00;99365.03;7395167;19;20038;-91
2022/10/31 11:25:28;;;;;;;0.50;0.13;;;;;;;20.64;100.00;99359.69;7395628;19;20018;-90
2022/10/31 11:28:09;;;;;;;2.75;0.13;;;;;;;20.49;100.00;99366.00;7398474;19;20457;-93
2022/10/31 11:30:52;;;;;;;0.10;0.10;;;;;;;20.46;100.00;99350.16;7401549;19;20037;-93
2022/10/31 11:33:47;;;;;;;0.65;0.57;;;;;;;20.35;100.00;99347.63;7395657;19;20603;-93
2022/10/31 11:36:18;;;;;;;0.40;0.28;;;;;;;20.51;100.00;99337.91;7395411;19;20017;-93
2022/10/31 11:38:45;;;;;;;1.20;0.30;;;;;;;20.54;100.00;99345.28;7395057;19;20682;-94
2022/10/31 11:41:18;;;;;;;3.10;0.75;;;;;;;20.48;100.00;99341.09;7396340;19;20010;-96
2022/10/31 11:43:52;;;;;;;6.07;0.17;;;;;;;20.39;100.00;99328.22;7395533;19;20023;-95
2022/10/31 11:46:26;;;;;;;1.27;0.40;;;;;;;20.32;100.00;99345.91;7394961;19;20026;-94
2022/10/31 11:48:55;;;;;;;0.10;0.10;;;;;;;20.31;100.00;99330.25;7394293;19;20038;-94
2022/10/31 11:51:26;;;;;;;3.20;0.30;;;;;;;20.27;100.00;99339.09;7396085;19;20032;-91
2022/10/31 11:53:55;;;;;;;1.60;0.40;;;;;;;20.35;100.00;99325.00;7395794;19;20045;-92
2022/10/31 11:56:21;;;;;;;0.50;0.20;;;;;;;20.33;100.00;99325.56;7398644;19;20016;-92
2022/10/31 11:59:00;;;;;;;0.10;0.10;;;;;;;20.35;100.00;99317.28;7403233;19;20027;-90
2022/10/31 12:01:30;;;;;;;1.13;0.22;;;;;;;20.27;100.00;99322.13;7398743;19;20101;-89